Time;durP1;ratioP1;P1;durP2;ratioP2;P2;SDS_P1;SDS_P2;PMS_P1;PMS_P2;Temp;Humidity;BMP_temperature;BMP_pressure;BME280_temperature;BME280_humidity;BME280_pressure;Samples;Min_cycle;Max_cycle;Signal;HPM_P1;HPM_P2
2024/04/04 00:01:20;;;;;;;0.90;0.70;;;;;;;7.77;100.00;97698.25;4976971;28;20492;-74
2024/04/04 00:03:46;;;;;;;0.60;0.60;;;;;;;7.50;100.00;97710.38;4993230;28;20042;-74
2024/04/04 00:06:12;;;;;;;0.70;0.70;;;;;;;7.57;100.00;97713.91;4970447;28;20081;-74
2024/04/04 00:08:41;;;;;;;0.70;0.70;;;;;;;7.68;100.00;97713.44;4954681;29;20123;-74
2024/04/04 00:11:10;;;;;;;0.70;0.70;;;;;;;7.59;100.00;97711.91;4957835;28;20073;-74
2024/04/04 00:13:37;;;;;;;0.70;0.70;;;;;;;7.67;100.00;97721.53;4957864;28;20057;-74
2024/04/04 00:16:07;;;;;;;0.80;0.80;;;;;;;7.64;100.00;97724.56;4973802;28;20055;-75
2024/04/04 00:18:33;;;;;;;0.80;0.80;;;;;;;7.71;100.00;97722.78;4909800;28;20042;-74
2024/04/04 00:20:59;;;;;;;1.10;0.70;;;;;;;7.70;100.00;97729.91;4940906;28;20501;-73
2024/04/04 00:23:31;;;;;;;0.85;0.85;;;;;;;7.78;100.00;97755.41;4925209;28;20058;-73
2024/04/04 00:25:57;;;;;;;0.75;0.70;;;;;;;7.68;100.00;97728.44;4892222;28;20064;-73
2024/04/04 00:28:27;;;;;;;0.70;0.70;;;;;;;7.80;100.00;97735.69;4907667;28;20054;-74
2024/04/04 00:31:08;;;;;;;0.70;0.70;;;;;;;7.76;100.00;97752.13;4923890;28;20054;-74
2024/04/04 00:34:00;;;;;;;1.20;0.80;;;;;;;7.55;100.00;97736.22;4917394;29;20677;-73
2024/04/04 00:36:26;;;;;;;0.80;0.80;;;;;;;7.59;100.00;97734.84;4937211;29;20142;-74
2024/04/04 00:38:55;;;;;;;0.65;0.65;;;;;;;7.63;100.00;97742.22;4922044;29;20055;-74
2024/04/04 00:41:24;;;;;;;0.80;0.80;;;;;;;7.73;100.00;97747.22;4915048;29;20435;-74
2024/04/04 00:43:50;;;;;;;0.80;0.80;;;;;;;7.40;100.00;97775.84;4903156;29;20075;-73
2024/04/04 00:46:16;;;;;;;0.85;0.80;;;;;;;7.60;100.00;97750.50;4934544;29;20090;-75
2024/04/04 00:48:46;;;;;;;0.80;0.80;;;;;;;7.65;100.00;97745.50;4934581;29;20062;-75
2024/04/04 00:51:18;;;;;;;0.80;0.80;;;;;;;7.53;100.00;97746.16;4917672;29;20063;-75
2024/04/04 00:53:48;;;;;;;0.85;0.80;;;;;;;7.59;100.00;97745.41;4934061;29;20495;-75
2024/04/04 00:56:13;;;;;;;1.98;0.90;;;;;;;7.25;100.00;97772.41;4934255;29;20142;-73
2024/04/04 00:58:43;;;;;;;0.80;0.80;;;;;;;7.54;100.00;97763.63;4934475;29;20169;-72
2024/04/04 01:01:14;;;;;;;1.00;0.88;;;;;;;7.47;100.00;97762.75;4934295;29;20055;-72
2024/04/04 01:03:40;;;;;;;0.80;0.80;;;;;;;7.22;100.00;97777.22;4937296;29;20078;-72
2024/04/04 01:06:12;;;;;;;0.70;0.70;;;;;;;7.32;100.00;97765.38;4970260;28;20093;-72
2024/04/04 01:08:39;;;;;;;0.70;0.70;;;;;;;7.22;100.00;97778.06;4940385;28;20105;-72
2024/04/04 01:11:05;;;;;;;0.70;0.70;;;;;;;7.12;100.00;97772.22;4969557;28;20438;-73
2024/04/04 01:13:34;;;;;;;0.80;0.80;;;;;;;7.23;100.00;97782.31;4988550;28;20406;-72
2024/04/04 01:16:01;;;;;;;0.77;0.77;;;;;;;7.09;100.00;97780.50;4956537;28;20086;-73
2024/04/04 01:18:27;;;;;;;0.73;0.73;;;;;;;7.19;100.00;97788.16;4956430;28;20463;-73
2024/04/04 01:20:54;;;;;;;0.63;0.63;;;;;;;7.28;100.00;97792.34;4955644;28;20085;-73
2024/04/04 01:23:25;;;;;;;0.70;0.70;;;;;;;7.26;100.00;97794.34;5025247;28;20507;-73
2024/04/04 01:25:52;;;;;;;0.68;0.68;;;;;;;7.27;100.00;97794.19;4998105;28;20052;-73
2024/04/04 01:28:19;;;;;;;1.30;0.65;;;;;;;7.32;100.00;97794.44;4998294;28;20037;-73
2024/04/04 01:30:47;;;;;;;0.80;0.57;;;;;;;7.16;100.00;97814.91;4985065;28;20064;-73
2024/04/04 01:33:17;;;;;;;0.60;0.60;;;;;;;7.14;100.00;97811.63;4998330;28;20144;-73
2024/04/04 01:35:43;;;;;;;0.70;0.70;;;;;;;7.12;100.00;97811.81;4981828;28;20065;-73
2024/04/04 01:38:11;;;;;;;2.50;0.80;;;;;;;7.20;100.00;97817.00;4965778;28;20141;-73
2024/04/04 01:40:38;;;;;;;0.77;0.77;;;;;;;7.18;100.00;97813.72;4998029;28;20496;-72
2024/04/04 01:43:05;;;;;;;0.60;0.60;;;;;;;7.25;100.00;97816.47;4994201;28;20745;-72
2024/04/04 01:45:31;;;;;;;0.60;0.60;;;;;;;7.34;100.00;97824.13;4955526;28;20134;-72
2024/04/04 01:47:57;;;;;;;2.05;0.60;;;;;;;7.41;100.00;97830.28;4940142;28;20062;-74
2024/04/04 01:50:23;;;;;;;1.40;0.70;;;;;;;7.30;100.00;97838.69;4939253;28;20050;-74
2024/04/04 01:52:49;;;;;;;0.80;0.80;;;;;;;7.27;100.00;97830.31;4921693;28;20193;-72
2024/04/04 01:55:15;;;;;;;0.60;0.60;;;;;;;7.27;100.00;97839.06;4922850;28;20069;-73
2024/04/04 01:57:43;;;;;;;1.45;0.80;;;;;;;7.43;100.00;97838.88;4923309;28;20054;-74
2024/04/04 02:00:13;;;;;;;0.90;0.90;;;;;;;7.38;100.00;97856.28;4939863;28;20049;-74
2024/04/04 02:02:41;;;;;;;0.60;0.60;;;;;;;7.37;100.00;97851.97;4935597;29;20146;-74
2024/04/04 02:05:08;;;;;;;0.80;0.63;;;;;;;7.46;100.00;97856.16;4920737;29;20063;-75
2024/04/04 02:07:34;;;;;;;1.48;0.70;;;;;;;7.40;100.00;97859.53;4922554;29;20145;-75
2024/04/04 02:10:04;;;;;;;1.17;0.70;;;;;;;7.49;100.00;97848.69;4941898;28;20043;-75
2024/04/04 02:12:32;;;;;;;0.70;0.70;;;;;;;7.42;100.00;97844.34;4945337;29;20118;-75
2024/04/04 02:15:09;;;;;;;0.60;0.60;;;;;;;7.55;100.00;97855.09;4910923;29;20070;-73
2024/04/04 02:17:36;;;;;;;3.05;0.80;;;;;;;7.59;100.00;97865.09;4907580;29;20062;-73
2024/04/04 02:20:09;;;;;;;1.00;0.80;;;;;;;7.72;100.00;97846.78;4936829;29;20094;-73
2024/04/04 02:22:40;;;;;;;0.60;0.60;;;;;;;7.62;100.00;97864.75;4902284;29;20138;-72
2024/04/04 02:25:12;;;;;;;1.58;0.60;;;;;;;7.55;100.00;97863.00;4936859;28;20051;-72
2024/04/04 02:27:39;;;;;;;2.70;0.70;;;;;;;7.51;100.00;97867.00;4921004;29;20059;-71
2024/04/04 02:30:06;;;;;;;1.23;0.70;;;;;;;7.54;100.00;97861.34;4952871;29;20486;-71
2024/04/04 02:32:32;;;;;;;1.00;0.90;;;;;;;7.49;100.00;97867.19;4952897;28;20478;-71
2024/04/04 02:34:58;;;;;;;1.70;1.48;;;;;;;7.45;100.00;97888.84;4936098;29;20063;-71
2024/04/04 02:37:25;;;;;;;1.10;1.00;;;;;;;7.56;100.00;97883.13;4920144;29;20134;-71
2024/04/04 02:39:52;;;;;;;0.90;0.90;;;;;;;7.60;100.00;97894.97;4937070;28;20054;-73
2024/04/04 02:42:18;;;;;;;1.27;0.80;;;;;;;7.63;100.00;97892.78;4964545;28;20067;-72
2024/04/04 02:44:48;;;;;;;0.65;0.65;;;;;;;7.64;100.00;97891.78;4997785;28;20064;-71
2024/04/04 02:47:14;;;;;;;0.70;0.70;;;;;;;7.69;100.00;97894.69;4961176;28;20053;-71
2024/04/04 02:49:43;;;;;;;0.70;0.70;;;;;;;7.73;100.00;97903.94;4977057;28;20143;-71
2024/04/04 02:52:09;;;;;;;0.70;0.70;;;;;;;7.61;100.00;97901.91;4943221;28;20153;-70
2024/04/04 02:54:39;;;;;;;1.67;0.70;;;;;;;7.69;100.00;97904.44;4958497;28;20144;-73
2024/04/04 02:57:10;;;;;;;1.42;0.82;;;;;;;7.59;100.00;97904.72;4974584;28;20432;-72
2024/04/04 02:59:41;;;;;;;1.10;0.93;;;;;;;7.59;100.00;97919.75;4961096;28;20054;-70
2024/04/04 03:02:09;;;;;;;0.80;0.80;;;;;;;7.43;100.00;97904.88;4958390;28;20819;-71
2024/04/04 03:04:36;;;;;;;1.10;0.93;;;;;;;7.45;100.00;97925.84;4958421;28;20049;-69
2024/04/04 03:07:05;;;;;;;1.88;0.80;;;;;;;7.58;100.00;97920.75;4959163;28;20132;-69
2024/04/04 03:09:34;;;;;;;0.88;0.88;;;;;;;7.45;100.00;97917.91;4961746;28;20042;-73
2024/04/04 03:12:00;;;;;;;0.75;0.73;;;;;;;7.61;100.00;97925.69;4961156;28;20566;-77
2024/04/04 03:14:29;;;;;;;0.60;0.60;;;;;;;7.81;100.00;97926.78;4961936;28;20153;-74
2024/04/04 03:16:55;;;;;;;0.70;0.70;;;;;;;7.75;100.00;97922.22;4962036;28;20046;-78
2024/04/04 03:19:21;;;;;;;0.93;0.90;;;;;;;7.65;100.00;97935.72;4983697;28;20049;-73
2024/04/04 03:21:47;;;;;;;0.90;0.90;;;;;;;7.64;100.00;97935.88;5000204;28;20041;-68
2024/04/04 03:24:14;;;;;;;0.90;0.90;;;;;;;7.77;100.00;97933.41;5000287;28;20052;-69
2024/04/04 03:26:41;;;;;;;0.75;0.75;;;;;;;7.63;100.00;97950.91;5000497;28;20052;-68
2024/04/04 03:29:06;;;;;;;3.35;0.65;;;;;;;7.64;100.00;97939.31;5001053;28;20037;-67
2024/04/04 03:31:32;;;;;;;0.80;0.77;;;;;;;7.67;100.00;97946.09;5020086;28;20576;-68
2024/04/04 03:33:58;;;;;;;2.70;1.10;;;;;;;7.69;100.00;97944.91;5020310;28;20052;-67
2024/04/04 03:36:24;;;;;;;0.75;0.75;;;;;;;7.69;100.00;97944.91;5003271;28;20064;-68
2024/04/04 03:38:50;;;;;;;0.82;0.82;;;;;;;7.62;100.00;97951.09;4996892;28;20144;-68
2024/04/04 03:41:16;;;;;;;0.80;0.80;;;;;;;7.70;100.00;97954.50;4997095;28;20054;-68
2024/04/04 03:43:43;;;;;;;0.90;0.90;;;;;;;7.90;100.00;97955.56;4980856;28;20056;-68
2024/04/04 03:46:10;;;;;;;0.90;0.80;;;;;;;7.87;100.00;97955.94;4997174;28;20046;-69
2024/04/04 03:48:36;;;;;;;2.58;0.80;;;;;;;8.05;100.00;97955.59;4964780;28;20065;-69
2024/04/04 03:51:02;;;;;;;2.50;1.08;;;;;;;7.73;100.00;97962.06;4983852;28;20444;-68
2024/04/04 03:53:28;;;;;;;2.60;0.80;;;;;;;7.79;100.00;97950.75;5000095;28;20156;-68
2024/04/04 03:55:54;;;;;;;1.27;0.77;;;;;;;7.78;100.00;97938.53;5016316;28;20084;-74
2024/04/04 03:58:26;;;;;;;0.80;0.80;;;;;;;7.73;100.00;97974.44;5000500;28;20049;-68
2024/04/04 04:00:54;;;;;;;1.40;0.80;;;;;;;7.79;100.00;97965.78;4999809;28;20046;-71
2024/04/04 04:03:21;;;;;;;1.38;0.70;;;;;;;7.70;100.00;97969.50;5016548;28;20052;-70
2024/04/04 04:05:48;;;;;;;0.70;0.70;;;;;;;6.94;100.00;97956.47;4967684;28;20140;-68
2024/04/04 04:08:16;;;;;;;1.05;0.90;;;;;;;7.01;100.00;97983.81;4980868;28;20053;-72
2024/04/04 04:10:42;;;;;;;0.80;0.80;;;;;;;6.90;100.00;97971.81;4997756;28;20053;-70
2024/04/04 04:13:08;;;;;;;1.00;0.90;;;;;;;7.09;100.00;97981.09;5035805;28;20460;-71
2024/04/04 04:15:34;;;;;;;0.75;0.75;;;;;;;7.19;100.00;97973.75;5036438;28;20071;-71
2024/04/04 04:18:00;;;;;;;1.98;1.10;;;;;;;7.27;100.00;97973.72;5018317;28;20106;-72
2024/04/04 04:23:10;;;;;;;3.10;1.30;;;;;;;7.28;100.00;97980.63;5012751;28;20069;-69
2024/04/04 04:25:37;;;;;;;1.67;0.80;;;;;;;7.08;100.00;97989.19;4979359;28;20045;-71
2024/04/04 04:28:03;;;;;;;1.63;0.90;;;;;;;7.33;100.00;97983.56;5012836;28;20046;-71
2024/04/04 04:30:29;;;;;;;0.80;0.75;;;;;;;7.47;100.00;97987.22;4997358;28;20504;-74
2024/04/04 04:33:01;;;;;;;1.58;1.00;;;;;;;7.58;100.00;97982.31;4948367;28;20053;-74
2024/04/04 04:35:27;;;;;;;0.77;0.73;;;;;;;7.34;100.00;98002.84;4981020;28;20132;-74
2024/04/04 04:37:54;;;;;;;3.05;1.25;;;;;;;7.53;100.00;98002.34;4980179;28;20439;-73
2024/04/04 04:40:26;;;;;;;2.28;0.93;;;;;;;7.75;100.00;98007.59;4982675;28;20103;-74
2024/04/04 04:42:57;;;;;;;1.33;0.80;;;;;;;8.02;100.00;98003.53;5016893;28;20069;-74
2024/04/04 04:45:23;;;;;;;1.13;0.70;;;;;;;7.66;100.00;98011.31;4967438;28;20107;-75
2024/04/04 04:47:50;;;;;;;0.70;0.70;;;;;;;7.96;100.00;98014.81;4967858;28;20145;-74
2024/04/04 04:50:18;;;;;;;1.00;0.77;;;;;;;7.87;100.00;98015.91;4984235;28;20056;-74
2024/04/04 04:52:45;;;;;;;1.20;0.88;;;;;;;8.02;100.00;98019.38;4968556;28;20041;-74
2024/04/04 04:55:35;;;;;;;1.45;1.05;;;;;;;7.92;100.00;98032.84;5019832;28;20230;-72
2024/04/04 04:58:00;;;;;;;0.73;0.73;;;;;;;7.90;100.00;98039.34;5051833;28;20029;-72
2024/04/04 05:00:31;;;;;;;3.65;1.00;;;;;;;7.83;100.00;98051.63;5018405;28;20045;-72
2024/04/04 05:02:58;;;;;;;3.72;0.90;;;;;;;7.76;100.00;98048.06;5018221;28;20114;-72
2024/04/04 05:05:23;;;;;;;1.92;0.93;;;;;;;7.72;100.00;98042.28;5003800;28;20049;-71
2024/04/04 05:07:54;;;;;;;1.10;0.85;;;;;;;7.84;100.00;98059.34;4999333;28;20047;-73
2024/04/04 05:10:19;;;;;;;0.70;0.70;;;;;;;7.82;100.00;98053.44;4982962;28;20053;-71
2024/04/04 05:12:46;;;;;;;1.65;1.17;;;;;;;8.14;100.00;98068.16;4983244;28;20049;-72
2024/04/04 05:15:14;;;;;;;1.10;1.00;;;;;;;7.88;100.00;98065.13;4984170;28;20060;-72
2024/04/04 05:17:39;;;;;;;1.15;0.90;;;;;;;7.98;100.00;98071.78;4966822;28;20054;-71
2024/04/04 05:20:11;;;;;;;0.98;0.90;;;;;;;8.12;100.00;98070.16;4995511;28;20140;-72
2024/04/04 05:22:41;;;;;;;1.70;1.20;;;;;;;7.83;100.00;98083.31;4976131;28;20524;-72
2024/04/04 05:25:08;;;;;;;1.45;1.10;;;;;;;7.78;100.00;98096.28;4960169;28;20046;-72
2024/04/04 05:27:34;;;;;;;6.70;1.13;;;;;;;7.80;100.00;98086.31;4976153;28;20504;-72
2024/04/04 05:30:13;;;;;;;1.67;1.10;;;;;;;8.18;100.00;98088.78;4943850;28;20140;-72
2024/04/04 05:32:40;;;;;;;1.35;1.00;;;;;;;8.06;100.00;98107.91;4944539;28;20058;-71
2024/04/04 05:35:07;;;;;;;1.13;0.80;;;;;;;8.17;100.00;98088.97;4942044;28;20477;-71
2024/04/04 05:37:34;;;;;;;3.42;0.90;;;;;;;8.38;100.00;98108.44;4948564;28;20055;-72
2024/04/04 05:40:00;;;;;;;1.83;1.15;;;;;;;8.44;100.00;98107.72;4985332;28;20466;-72
2024/04/04 05:42:34;;;;;;;1.67;0.90;;;;;;;8.63;100.00;98116.94;4995948;28;20060;-72
2024/04/04 05:45:01;;;;;;;2.50;0.80;;;;;;;8.91;100.00;98125.03;4972082;28;20141;-71
2024/04/04 05:47:29;;;;;;;1.15;0.90;;;;;;;9.01;100.00;98117.66;4959223;28;20042;-72
2024/04/04 05:49:55;;;;;;;2.05;0.90;;;;;;;9.13;100.00;98127.59;4935503;28;20062;-72
2024/04/04 05:52:28;;;;;;;0.88;0.88;;;;;;;8.83;100.00;98125.97;4965146;28;20046;-72
2024/04/04 05:54:56;;;;;;;0.80;0.80;;;;;;;9.02;100.00;98138.66;4951526;28;20046;-72
2024/04/04 05:57:22;;;;;;;0.95;0.77;;;;;;;9.26;100.00;98137.50;4968137;28;20057;-73
2024/04/04 05:59:50;;;;;;;1.85;0.90;;;;;;;9.30;100.00;98146.72;4954145;28;20399;-71
2024/04/04 06:02:17;;;;;;;0.80;0.80;;;;;;;9.49;100.00;98141.66;4962010;28;20330;-72
2024/04/04 06:04:46;;;;;;;0.95;0.90;;;;;;;9.62;100.00;98144.44;4953240;28;20041;-71
2024/04/04 06:07:12;;;;;;;2.08;0.73;;;;;;;9.32;100.00;98156.13;4965462;28;20074;-71
2024/04/04 06:09:38;;;;;;;0.60;0.60;;;;;;;9.42;100.00;98154.00;4950213;28;20059;-72
2024/04/04 06:12:06;;;;;;;0.90;0.57;;;;;;;9.30;100.00;98149.38;4967523;28;20058;-72
2024/04/04 06:14:38;;;;;;;1.00;0.60;;;;;;;9.40;100.00;98163.97;4962928;28;20069;-72
2024/04/04 06:17:08;;;;;;;1.05;0.80;;;;;;;8.94;100.00;98177.63;4971866;28;20129;-72
2024/04/04 06:19:37;;;;;;;1.27;0.70;;;;;;;9.03;100.00;98172.06;4939357;28;20482;-71
2024/04/04 06:22:05;;;;;;;0.70;0.63;;;;;;;8.88;100.00;98168.59;4943823;28;20076;-71
2024/04/04 06:27:27;;;;;;;0.70;0.70;;;;;;;9.07;100.00;98188.41;4991014;28;20062;-71
2024/04/04 06:29:56;;;;;;;1.50;1.00;;;;;;;9.18;100.00;98182.66;4975038;28;20054;-71
2024/04/04 06:32:25;;;;;;;3.65;1.05;;;;;;;9.24;100.00;98195.94;4960272;28;20054;-72
2024/04/04 06:34:51;;;;;;;0.80;0.80;;;;;;;9.34;100.00;98196.50;4964689;28;20452;-71
2024/04/04 06:37:18;;;;;;;1.70;0.90;;;;;;;8.97;100.00;98212.50;5012787;28;20046;-71
2024/04/04 06:39:45;;;;;;;3.05;1.73;;;;;;;8.91;100.00;98204.47;4996917;28;20076;-71
2024/04/04 06:42:14;;;;;;;2.67;0.93;;;;;;;9.02;100.00;98204.84;4981003;28;20080;-71
2024/04/04 06:44:40;;;;;;;0.70;0.70;;;;;;;9.02;100.00;98217.25;4980971;28;20049;-72
2024/04/04 06:47:06;;;;;;;2.97;0.82;;;;;;;9.14;100.00;98223.72;4996713;28;20053;-71
2024/04/04 06:49:32;;;;;;;3.50;1.00;;;;;;;9.30;100.00;98224.34;4964904;28;20045;-71
2024/04/04 06:51:58;;;;;;;1.58;0.98;;;;;;;9.58;100.00;98229.81;4999881;28;20064;-71
2024/04/04 06:54:25;;;;;;;0.73;0.68;;;;;;;9.69;100.00;98224.03;5032431;28;20063;-71
2024/04/04 06:56:50;;;;;;;0.95;0.82;;;;;;;9.85;100.00;98231.75;4995262;28;20048;-71
2024/04/04 06:59:16;;;;;;;1.38;0.80;;;;;;;9.95;100.00;98235.75;5014291;28;20057;-71
2024/04/04 07:01:44;;;;;;;2.47;0.80;;;;;;;9.98;100.00;98235.38;5000074;28;20095;-72
2024/04/04 07:04:11;;;;;;;1.33;0.80;;;;;;;9.66;100.00;98241.13;5033083;28;20040;-72
2024/04/04 07:06:37;;;;;;;2.70;0.98;;;;;;;9.36;100.00;98239.53;4999450;28;20063;-72
2024/04/04 07:09:06;;;;;;;2.30;0.80;;;;;;;9.13;100.00;98257.34;5015385;28;20057;-71
2024/04/04 07:11:32;;;;;;;1.15;0.80;;;;;;;9.30;100.00;98263.28;4961567;28;20070;-71
2024/04/04 07:14:00;;;;;;;2.25;0.63;;;;;;;9.35;100.00;98256.44;4957214;28;20061;-72
2024/04/04 07:16:26;;;;;;;0.73;0.52;;;;;;;9.05;100.00;98260.09;4952529;28;20077;-70
2024/04/04 07:18:52;;;;;;;1.90;0.60;;;;;;;9.42;100.00;98257.34;4983140;28;20038;-71
2024/04/04 07:21:18;;;;;;;2.15;0.75;;;;;;;9.37;100.00;98283.56;4973701;28;20116;-71
2024/04/04 07:23:44;;;;;;;0.98;0.70;;;;;;;9.66;100.00;98264.97;4992866;28;20097;-71
2024/04/04 07:26:09;;;;;;;0.73;0.73;;;;;;;10.17;100.00;98269.28;4992941;28;20046;-70
2024/04/04 07:28:37;;;;;;;0.70;0.52;;;;;;;10.36;100.00;98267.84;4987180;28;20034;-71
2024/04/04 07:31:03;;;;;;;0.60;0.60;;;;;;;10.30;100.00;98265.09;4978678;28;20152;-71
2024/04/04 07:33:29;;;;;;;0.73;0.50;;;;;;;10.53;100.00;98268.38;4957643;28;20086;-74
2024/04/04 07:35:55;;;;;;;0.60;0.60;;;;;;;10.44;100.00;98275.63;4957628;28;20038;-71
2024/04/04 07:38:20;;;;;;;0.70;0.60;;;;;;;10.39;100.00;98282.53;4957501;28;20046;-71
2024/04/04 07:40:49;;;;;;;1.45;0.70;;;;;;;10.20;100.00;98282.16;4957758;28;20144;-71
2024/04/04 07:43:18;;;;;;;1.05;0.60;;;;;;;9.87;100.00;98282.78;5002298;28;20049;-71
2024/04/04 07:45:44;;;;;;;1.92;0.80;;;;;;;9.64;100.00;98282.88;5013346;28;20072;-72
2024/04/04 07:48:15;;;;;;;0.98;0.88;;;;;;;9.08;100.00;98301.25;4997463;28;20087;-71
2024/04/04 07:50:42;;;;;;;0.80;0.80;;;;;;;8.39;100.00;98305.03;4981734;28;20046;-72
2024/04/04 07:53:08;;;;;;;0.80;0.80;;;;;;;8.12;100.00;98305.47;4997674;28;20050;-71
2024/04/04 07:55:35;;;;;;;0.70;0.70;;;;;;;8.42;100.00;98305.50;4997211;28;20064;-71
2024/04/04 07:58:02;;;;;;;1.13;0.98;;;;;;;8.70;100.00;98318.16;5014006;28;20049;-71
2024/04/04 08:00:27;;;;;;;1.25;0.90;;;;;;;9.25;100.00;98311.53;4983021;28;20047;-71
2024/04/04 08:02:53;;;;;;;1.17;0.88;;;;;;;9.77;100.00;98314.88;4984871;28;20049;-69
2024/04/04 08:05:22;;;;;;;0.80;0.80;;;;;;;10.34;100.00;98322.09;4989874;28;20195;-71
2024/04/04 08:07:48;;;;;;;3.00;0.80;;;;;;;10.62;100.00;98331.78;5001506;28;20041;-69
2024/04/04 08:10:15;;;;;;;4.32;1.00;;;;;;;10.45;100.00;98340.16;4984561;28;20484;-71
2024/04/04 08:12:44;;;;;;;1.67;0.80;;;;;;;10.25;100.00;98324.06;5009691;28;20106;-71
2024/04/04 08:15:14;;;;;;;0.70;0.70;;;;;;;10.22;100.00;98340.34;4985169;28;20052;-71
2024/04/04 08:17:46;;;;;;;0.60;0.60;;;;;;;10.40;100.00;98345.22;5034097;28;20398;-71
2024/04/04 08:20:16;;;;;;;0.60;0.60;;;;;;;10.10;100.00;98353.25;5033752;28;20060;-71
2024/04/04 08:22:43;;;;;;;0.60;0.60;;;;;;;9.97;100.00;98344.28;4985247;28;20065;-72
2024/04/04 08:25:10;;;;;;;2.97;0.80;;;;;;;9.86;100.00;98353.53;5033128;28;20045;-72
2024/04/04 08:27:38;;;;;;;0.73;0.73;;;;;;;9.98;100.00;98352.06;5000973;28;20053;-71
2024/04/04 08:30:05;;;;;;;0.88;0.88;;;;;;;10.43;100.00;98350.97;4984153;28;20115;-72
2024/04/04 08:32:33;;;;;;;3.55;0.85;;;;;;;10.66;100.00;98351.63;5000861;28;20049;-71
2024/04/04 08:35:02;;;;;;;0.70;0.70;;;;;;;10.55;100.00;98356.63;5039437;28;20483;-77
2024/04/04 08:37:31;;;;;;;1.77;0.70;;;;;;;10.25;100.00;98351.38;4985769;28;20077;-73
2024/04/04 08:39:57;;;;;;;0.70;0.70;;;;;;;9.69;100.00;98354.75;5033502;28;20543;-71
2024/04/04 08:42:25;;;;;;;0.75;0.75;;;;;;;9.70;100.00;98363.53;4983722;28;20052;-71
2024/04/04 08:44:52;;;;;;;1.60;0.75;;;;;;;10.07;100.00;98358.94;5049440;28;20117;-71
2024/04/04 08:47:18;;;;;;;1.67;0.80;;;;;;;10.01;100.00;98359.66;4983606;28;20144;-71
2024/04/04 08:49:47;;;;;;;2.83;0.73;;;;;;;10.63;100.00;98370.59;4983891;28;20045;-71
2024/04/04 08:52:14;;;;;;;1.15;0.60;;;;;;;10.95;100.00;98371.91;5015996;28;20052;-71
2024/04/04 08:54:41;;;;;;;2.60;0.80;;;;;;;10.81;100.00;98370.97;4999694;28;20091;-71
2024/04/04 08:57:08;;;;;;;1.13;0.70;;;;;;;11.10;100.00;98360.19;5016105;28;20080;-72
2024/04/04 08:59:34;;;;;;;1.60;0.90;;;;;;;10.88;100.00;98371.03;4999842;28;20052;-72
2024/04/04 09:02:00;;;;;;;1.13;0.80;;;;;;;11.18;100.00;98370.69;4999861;28;20148;-71
2024/04/04 09:04:28;;;;;;;1.27;0.82;;;;;;;10.98;100.00;98363.56;5016261;28;20049;-71
2024/04/04 09:06:55;;;;;;;0.50;0.50;;;;;;;11.03;100.00;98377.91;4999565;28;20140;-72
2024/04/04 09:09:21;;;;;;;1.77;0.80;;;;;;;10.71;100.00;98388.22;4999653;28;20051;-72
2024/04/04 09:11:54;;;;;;;2.60;0.95;;;;;;;10.62;100.00;98384.06;5003008;28;20045;-71
2024/04/04 09:14:21;;;;;;;2.20;0.70;;;;;;;10.67;100.00;98395.72;5002565;28;20098;-72
2024/04/04 09:16:48;;;;;;;1.08;0.80;;;;;;;10.82;100.00;98395.69;4994918;28;20049;-72
2024/04/04 09:19:15;;;;;;;1.30;0.80;;;;;;;10.95;100.00;98391.31;4979127;28;20057;-71
2024/04/04 09:21:44;;;;;;;1.70;0.80;;;;;;;10.84;100.00;98399.00;4963702;28;20204;-71
2024/04/04 09:24:16;;;;;;;1.33;1.10;;;;;;;10.85;100.00;98397.97;4995512;28;20050;-71
2024/04/04 09:26:44;;;;;;;1.13;0.98;;;;;;;10.75;100.00;98394.81;4994815;28;20511;-71
2024/04/04 09:29:11;;;;;;;0.90;0.80;;;;;;;11.02;100.00;98408.16;4978970;28;20057;-71
2024/04/04 09:31:41;;;;;;;0.85;0.82;;;;;;;11.31;100.00;98408.00;4978789;28;20065;-71
2024/04/04 09:34:10;;;;;;;1.52;0.90;;;;;;;11.43;100.00;98408.28;4994166;28;20572;-71
2024/04/04 09:36:39;;;;;;;3.72;0.80;;;;;;;11.40;100.00;98406.00;4994836;28;20058;-71
2024/04/04 09:39:19;;;;;;;0.80;0.80;;;;;;;11.21;100.00;98410.16;4994216;28;20072;-71
2024/04/04 09:41:47;;;;;;;1.10;0.70;;;;;;;11.31;100.00;98423.94;4979630;28;20402;-71
2024/04/04 09:44:13;;;;;;;0.85;0.60;;;;;;;11.17;100.00;98422.19;4994544;28;20042;-72
2024/04/04 09:46:39;;;;;;;1.15;0.80;;;;;;;11.10;100.00;98426.59;4979436;28;20049;-72
2024/04/04 09:49:08;;;;;;;1.05;0.90;;;;;;;11.00;100.00;98423.47;4982951;28;20046;-72
2024/04/04 09:51:37;;;;;;;2.15;0.90;;;;;;;10.95;100.00;98425.03;4999133;28;20042;-72
2024/04/04 09:54:03;;;;;;;1.45;0.98;;;;;;;10.73;100.00;98434.00;4999049;28;20626;-71
2024/04/04 09:56:35;;;;;;;1.30;0.90;;;;;;;10.77;100.00;98433.44;4999096;28;20056;-72
2024/04/04 09:59:00;;;;;;;1.90;1.00;;;;;;;10.74;100.00;98447.09;5015167;28;20045;-72
2024/04/04 10:01:26;;;;;;;1.55;1.00;;;;;;;10.86;100.00;98447.41;5015141;28;20037;-72
2024/04/04 10:03:52;;;;;;;1.98;1.00;;;;;;;10.87;100.00;98449.88;5015238;28;20041;-72
2024/04/04 10:06:28;;;;;;;1.73;1.10;;;;;;;11.00;100.00;98454.50;4998943;28;20045;-72
2024/04/04 10:08:56;;;;;;;1.40;1.27;;;;;;;10.99;100.00;98451.03;4998756;28;20069;-72
2024/04/04 10:11:29;;;;;;;4.18;1.10;;;;;;;10.98;100.00;98460.00;5014775;28;20049;-72
2024/04/04 10:14:01;;;;;;;2.72;1.25;;;;;;;10.99;100.00;98455.53;4998749;28;20113;-72
2024/04/04 10:16:35;;;;;;;1.20;1.10;;;;;;;10.77;100.00;98469.78;5031606;28;20037;-71
2024/04/04 10:19:11;;;;;;;1.20;0.90;;;;;;;10.86;100.00;98469.50;5015205;28;20052;-72
2024/04/04 10:21:40;;;;;;;1.10;1.00;;;;;;;10.80;100.00;98474.72;4998491;28;20081;-71
2024/04/04 10:24:11;;;;;;;1.25;0.98;;;;;;;10.73;100.00;98476.50;4981395;28;20060;-72
2024/04/04 10:26:39;;;;;;;0.80;0.80;;;;;;;10.77;100.00;98475.09;5015323;28;20128;-72
2024/04/04 10:29:12;;;;;;;1.48;0.70;;;;;;;10.84;100.00;98479.47;4998576;28;20522;-71
2024/04/04 10:31:38;;;;;;;1.42;0.80;;;;;;;10.76;100.00;98492.06;5002051;28;20483;-73
2024/04/04 10:34:05;;;;;;;0.85;0.70;;;;;;;10.68;100.00;98490.34;5009406;28;20037;-71
2024/04/04 10:36:42;;;;;;;0.82;0.70;;;;;;;10.98;100.00;98485.78;4992844;28;20042;-72
2024/04/04 10:39:16;;;;;;;1.00;0.80;;;;;;;10.99;100.00;98498.03;5009403;28;20442;-71
2024/04/04 10:41:49;;;;;;;0.80;0.77;;;;;;;10.86;100.00;98497.88;5026397;28;20463;-72
2024/04/04 10:44:21;;;;;;;0.65;0.63;;;;;;;10.83;100.00;98501.75;5009388;28;20073;-72
2024/04/04 10:46:55;;;;;;;1.77;1.08;;;;;;;10.79;100.00;98507.63;5018253;28;20052;-71
2024/04/04 10:49:28;;;;;;;0.82;0.73;;;;;;;10.76;100.00;98510.63;5017678;28;20502;-72
2024/04/04 10:52:00;;;;;;;1.35;0.90;;;;;;;11.01;100.00;98514.63;5035039;28;20049;-72
2024/04/04 10:54:26;;;;;;;;;;;;;;;11.23;100.00;98513.59;4986511;28;20044;-71
2024/04/04 10:56:52;;;;;;;1.23;0.90;;;;;;;10.85;100.00;98520.97;5017499;28;19919;-71
2024/04/04 10:59:19;;;;;;;1.67;1.30;;;;;;;10.91;100.00;98530.00;5001149;28;20045;-71
2024/04/04 11:01:50;;;;;;;0.90;0.80;;;;;;;10.71;100.00;98527.13;5017328;28;20398;-71
2024/04/04 11:04:20;;;;;;;1.13;0.68;;;;;;;10.12;100.00;98531.63;5017921;28;20045;-71
2024/04/04 11:06:47;;;;;;;1.10;0.82;;;;;;;9.54;100.00;98544.75;5017697;28;20045;-72
2024/04/04 11:09:15;;;;;;;1.42;0.70;;;;;;;9.27;100.00;98552.41;5010663;28;20029;-75
2024/04/04 11:11:47;;;;;;;5.72;1.10;;;;;;;9.42;100.00;98554.13;5007163;28;20041;-74
2024/04/04 11:14:13;;;;;;;;;;;;;;;9.66;100.00;98559.22;5018414;28;20064;-74
2024/04/04 11:16:45;;;;;;;1.35;1.00;;;;;;;9.72;100.00;98565.63;5017267;28;19924;-74
2024/04/04 11:19:12;;;;;;;3.00;1.10;;;;;;;9.46;100.00;98573.13;5006819;28;20095;-74
2024/04/04 11:21:38;;;;;;;1.55;1.10;;;;;;;9.56;100.00;98571.88;5031611;28;20048;-74
2024/04/04 11:24:05;;;;;;;0.80;0.80;;;;;;;9.74;100.00;98575.06;4985100;28;20144;-74
2024/04/04 11:26:32;;;;;;;1.38;0.90;;;;;;;9.88;100.00;98578.75;4997263;28;20067;-74
2024/04/04 11:28:58;;;;;;;1.02;0.90;;;;;;;9.83;100.00;98589.06;5014110;28;20049;-73
2024/04/04 11:31:26;;;;;;;2.30;1.02;;;;;;;9.93;100.00;98587.00;5006109;28;20033;-73
2024/04/04 11:33:52;;;;;;;0.90;0.90;;;;;;;9.74;100.00;98590.16;5015656;28;20041;-72
2024/04/04 11:36:18;;;;;;;1.10;1.00;;;;;;;9.78;100.00;98594.06;5026841;28;20033;-73
2024/04/04 11:38:44;;;;;;;2.20;1.20;;;;;;;9.85;100.00;98598.53;5001290;28;20132;-72
2024/04/04 11:41:10;;;;;;;2.97;1.00;;;;;;;9.99;100.00;98600.34;4995813;28;20087;-72